createdAt,value
2018-09-02T00:00:02.582Z,0.00
2018-09-02T00:01:02.516Z,0.00
2018-09-02T00:02:02.454Z,0.00
2018-09-02T00:03:02.397Z,0.00
2018-09-02T00:04:02.331Z,0.00
2018-09-02T00:05:02.272Z,0.00
2018-09-02T00:06:02.204Z,0.00
2018-09-02T00:07:02.141Z,0.00
2018-09-02T00:08:02.090Z,0.00
2018-09-02T00:09:02.024Z,0.00
2018-09-02T00:10:01.961Z,0.00
2018-09-02T00:11:01.890Z,0.00
2018-09-02T00:12:01.838Z,0.00
2018-09-02T00:13:01.772Z,0.00
2018-09-02T00:14:01.709Z,0.00
2018-09-02T00:15:01.646Z,0.00
2018-09-02T00:16:01.583Z,0.00
2018-09-02T00:17:01.520Z,0.00
2018-09-02T00:18:01.469Z,0.00
2018-09-02T00:19:01.399Z,0.00
2018-09-02T00:20:01.335Z,0.00
2018-09-02T00:21:01.273Z,0.00
2018-09-02T00:22:01.212Z,0.00
2018-09-02T00:23:01.168Z,0.00
2018-09-02T00:24:01.128Z,0.00
2018-09-02T00:25:01.026Z,0.00
2018-09-02T00:26:00.964Z,0.00
2018-09-02T00:27:00.902Z,0.00
2018-09-02T00:28:00.890Z,0.00
2018-09-02T00:29:00.775Z,0.00
2018-09-02T00:30:00.714Z,0.00
2018-09-02T00:31:00.651Z,0.00
2018-09-02T00:32:00.591Z,0.00
2018-09-02T00:33:00.561Z,0.00
2018-09-02T00:34:00.482Z,0.00
2018-09-02T00:35:00.417Z,0.00
2018-09-02T00:36:00.343Z,0.00
2018-09-02T00:37:00.276Z,0.00
2018-09-02T00:38:00.220Z,0.00
2018-09-02T00:39:00.154Z,0.00
2018-09-02T00:40:00.094Z,0.00
2018-09-02T00:41:00.031Z,0.00
2018-09-02T00:41:59.971Z,0.00
2018-09-02T00:42:59.906Z,0.00
2018-09-02T00:43:59.845Z,0.00
2018-09-02T00:44:59.783Z,0.00
2018-09-02T00:45:59.720Z,0.00
2018-09-02T00:46:59.657Z,0.00
2018-09-02T00:47:59.595Z,0.00
2018-09-02T00:48:59.534Z,0.00
2018-09-02T00:49:59.474Z,0.00
2018-09-02T00:50:59.410Z,0.00
2018-09-02T00:51:59.347Z,0.00
2018-09-02T00:52:59.285Z,0.00
2018-09-02T00:53:59.221Z,0.00
2018-09-02T00:54:59.159Z,0.00
2018-09-02T00:55:59.104Z,0.00
2018-09-02T00:56:59.035Z,0.00
2018-09-02T00:57:58.973Z,0.00
2018-09-02T00:58:58.912Z,0.00
2018-09-02T00:59:58.849Z,0.00
2018-09-02T01:00:58.789Z,0.00
2018-09-02T01:01:58.725Z,0.00
2018-09-02T01:02:58.662Z,0.00
2018-09-02T01:03:58.601Z,0.00
2018-09-02T01:04:58.536Z,0.00
2018-09-02T01:05:58.477Z,0.00
2018-09-02T01:06:58.414Z,0.00
2018-09-02T01:07:58.352Z,0.00
2018-09-02T01:08:58.290Z,0.00
2018-09-02T01:09:58.225Z,0.00
2018-09-02T01:10:58.164Z,0.00
2018-09-02T01:11:58.102Z,0.00
2018-09-02T01:12:58.041Z,0.00
2018-09-02T01:13:57.978Z,0.00
2018-09-02T01:14:57.913Z,0.00
2018-09-02T01:15:57.854Z,0.00
2018-09-02T01:16:57.792Z,0.00
2018-09-02T01:17:57.729Z,0.00
2018-09-02T01:18:57.668Z,0.00
2018-09-02T01:19:57.608Z,0.00
2018-09-02T01:20:57.542Z,0.00
2018-09-02T01:21:57.483Z,0.00
2018-09-02T01:22:57.479Z,0.00
2018-09-02T01:23:57.356Z,0.00
2018-09-02T01:24:57.306Z,0.00
2018-09-02T01:25:57.233Z,0.00
2018-09-02T01:26:57.172Z,0.00
2018-09-02T01:27:57.107Z,0.00
2018-09-02T01:28:57.047Z,0.00
2018-09-02T01:29:56.983Z,0.00
2018-09-02T01:30:56.922Z,0.00
2018-09-02T01:31:56.859Z,0.00
2018-09-02T01:32:56.797Z,0.00
2018-09-02T01:33:56.732Z,0.00
2018-09-02T01:34:56.673Z,0.00
2018-09-02T01:35:56.608Z,0.00
2018-09-02T01:36:56.546Z,0.00
2018-09-02T01:37:56.486Z,0.00
2018-09-02T01:38:56.421Z,0.00
2018-09-02T01:39:56.361Z,0.00
2018-09-02T01:40:56.304Z,0.00
2018-09-02T01:41:56.236Z,0.00
2018-09-02T01:42:56.177Z,0.00
2018-09-02T01:43:56.112Z,0.00
2018-09-02T01:44:56.051Z,0.00
2018-09-02T01:45:55.989Z,0.00
2018-09-02T01:46:55.928Z,0.00
2018-09-02T01:47:55.868Z,0.00
2018-09-02T01:48:55.803Z,0.00
2018-09-02T01:49:55.740Z,0.00
2018-09-02T01:50:55.677Z,0.00
2018-09-02T01:51:55.614Z,0.00
2018-09-02T01:52:55.552Z,0.00
2018-09-02T01:53:55.491Z,0.00
2018-09-02T01:54:55.432Z,0.00
2018-09-02T01:55:55.365Z,0.00
2018-09-02T01:56:55.304Z,0.00
2018-09-02T01:57:55.243Z,0.00
2018-09-02T01:58:55.179Z,0.00
2018-09-02T01:59:55.119Z,0.00
2018-09-02T02:00:55.056Z,0.00
2018-09-02T02:01:55.003Z,0.00
2018-09-02T02:02:54.930Z,0.00
2018-09-02T02:03:54.875Z,0.00
2018-09-02T02:04:54.806Z,0.00
2018-09-02T02:05:54.745Z,0.00
2018-09-02T02:06:54.682Z,0.00
2018-09-02T02:07:54.619Z,0.00
2018-09-02T02:08:54.558Z,0.00
2018-09-02T02:09:54.498Z,0.00
2018-09-02T02:10:54.433Z,0.00
2018-09-02T02:11:54.370Z,0.00
2018-09-02T02:12:54.311Z,0.00
2018-09-02T02:13:54.249Z,0.00
2018-09-02T02:14:54.188Z,0.00
2018-09-02T02:15:54.148Z,0.00
2018-09-02T02:16:54.063Z,0.00
2018-09-02T02:17:53.999Z,0.00
2018-09-02T02:18:53.935Z,0.00
2018-09-02T02:19:53.885Z,0.00
2018-09-02T02:20:53.811Z,0.00
2018-09-02T02:21:53.754Z,0.00
2018-09-02T02:22:53.688Z,0.00
2018-09-02T02:23:53.627Z,0.00
2018-09-02T02:24:53.561Z,0.00
2018-09-02T02:25:53.502Z,0.00
2018-09-02T02:26:53.443Z,0.00
2018-09-02T02:27:53.377Z,0.00
2018-09-02T02:28:53.316Z,0.00
2018-09-02T02:29:53.251Z,0.00
2018-09-02T02:30:53.191Z,0.00
2018-09-02T02:31:53.125Z,0.00
2018-09-02T02:32:53.067Z,0.00
2018-09-02T02:33:53.006Z,0.00
2018-09-02T02:34:52.943Z,0.00
2018-09-02T02:35:52.880Z,0.00
2018-09-02T02:36:52.824Z,0.00
2018-09-02T02:37:52.754Z,0.00
2018-09-02T02:38:52.694Z,0.00
2018-09-02T02:39:52.645Z,0.00
2018-09-02T02:40:52.567Z,0.00
2018-09-02T02:41:52.509Z,0.00
2018-09-02T02:42:52.447Z,0.00
2018-09-02T02:43:52.384Z,0.00
2018-09-02T02:44:52.322Z,0.00
2018-09-02T02:45:52.262Z,0.00
2018-09-02T02:46:52.201Z,0.00
2018-09-02T02:47:52.141Z,0.00
2018-09-02T02:48:52.077Z,0.00
2018-09-02T02:49:52.014Z,0.00
2018-09-02T02:50:51.951Z,0.00
2018-09-02T02:51:51.886Z,0.00
2018-09-02T02:52:51.823Z,0.00
2018-09-02T02:53:51.766Z,0.00
2018-09-02T02:54:51.701Z,0.00
2018-09-02T02:55:51.640Z,0.00
2018-09-02T02:56:51.576Z,0.00
2018-09-02T02:57:51.515Z,0.00
2018-09-02T02:58:51.453Z,0.00
2018-09-02T02:59:51.394Z,0.00
2018-09-02T03:00:51.329Z,0.00
2018-09-02T03:01:51.265Z,0.00
2018-09-02T03:02:51.205Z,0.00
2018-09-02T03:03:51.143Z,0.00
2018-09-02T03:04:51.082Z,0.00
2018-09-02T03:05:51.018Z,0.00
2018-09-02T03:06:50.956Z,0.00
2018-09-02T03:07:50.894Z,0.00
2018-09-02T03:08:50.890Z,0.00
2018-09-02T03:09:50.776Z,0.00
2018-09-02T03:10:50.774Z,0.00
2018-09-02T03:11:50.648Z,0.00
2018-09-02T03:12:50.585Z,0.00
2018-09-02T03:13:50.533Z,0.00
2018-09-02T03:14:50.464Z,0.00
2018-09-02T03:15:50.399Z,0.00
2018-09-02T03:16:50.338Z,0.00
2018-09-02T03:17:50.280Z,0.00
2018-09-02T03:18:50.213Z,0.00
2018-09-02T03:19:50.151Z,0.00
2018-09-02T03:20:50.090Z,0.00
2018-09-02T03:21:50.030Z,0.00
2018-09-02T03:22:49.968Z,0.00
2018-09-02T03:23:49.903Z,0.00
2018-09-02T03:24:49.841Z,0.00
2018-09-02T03:25:49.778Z,0.00
2018-09-02T03:26:49.717Z,0.00
2018-09-02T03:27:49.657Z,0.00
2018-09-02T03:28:49.595Z,0.00
2018-09-02T03:29:49.533Z,0.00
2018-09-02T03:30:49.470Z,0.00
2018-09-02T03:31:49.412Z,0.00
2018-09-02T03:32:49.345Z,0.00
2018-09-02T03:33:49.284Z,0.00
2018-09-02T03:34:49.220Z,0.00
2018-09-02T03:35:49.158Z,0.00
2018-09-02T03:36:49.097Z,0.00
2018-09-02T03:37:49.035Z,0.00
2018-09-02T03:38:48.975Z,0.00
2018-09-02T03:39:48.911Z,0.00
2018-09-02T03:40:48.849Z,0.00
2018-09-02T03:41:48.790Z,0.00
2018-09-02T03:42:48.768Z,0.00
2018-09-02T03:43:48.663Z,0.00
2018-09-02T03:44:48.603Z,0.00
2018-09-02T03:45:48.540Z,0.00
2018-09-02T03:46:48.478Z,0.00
2018-09-02T03:47:48.414Z,0.00
2018-09-02T03:48:48.352Z,0.00
2018-09-02T03:49:48.291Z,0.00
2018-09-02T03:50:48.226Z,0.00
2018-09-02T03:51:48.167Z,0.00
2018-09-02T03:52:48.105Z,0.00
2018-09-02T03:53:48.045Z,0.00
2018-09-02T03:54:47.983Z,0.00
2018-09-02T03:55:47.919Z,0.00
2018-09-02T03:56:47.854Z,0.00
2018-09-02T03:57:47.794Z,0.00
2018-09-02T03:58:47.732Z,0.00
2018-09-02T03:59:47.675Z,0.00
2018-09-02T04:00:47.637Z,0.00
2018-09-02T04:01:47.546Z,0.00
2018-09-02T04:02:47.485Z,0.00
2018-09-02T04:03:47.423Z,0.00
2018-09-02T04:04:47.362Z,0.00
2018-09-02T04:05:47.295Z,0.00
2018-09-02T04:06:47.237Z,0.00
2018-09-02T04:07:47.174Z,0.00
2018-09-02T04:08:47.115Z,0.00
2018-09-02T04:09:47.051Z,0.00
2018-09-02T04:10:46.987Z,0.00
2018-09-02T04:11:46.928Z,0.00
2018-09-02T04:12:46.865Z,0.00
2018-09-02T04:13:46.803Z,0.00
2018-09-02T04:14:46.744Z,0.00
2018-09-02T04:15:46.679Z,0.00
2018-09-02T04:16:46.622Z,0.00
2018-09-02T04:17:46.556Z,0.00
2018-09-02T04:18:46.492Z,0.00
2018-09-02T04:19:46.432Z,0.00
2018-09-02T04:20:46.370Z,0.00
2018-09-02T04:21:46.309Z,0.00
2018-09-02T04:22:46.246Z,0.00
2018-09-02T04:23:46.185Z,0.00
2018-09-02T04:24:46.120Z,4.00
2018-09-02T04:25:46.061Z,4.00
2018-09-02T04:26:45.997Z,0.00
2018-09-02T04:27:45.934Z,4.00
2018-09-02T04:28:45.878Z,4.00
2018-09-02T04:29:45.812Z,4.00
2018-09-02T04:30:45.749Z,8.00
2018-09-02T04:31:45.690Z,4.00
2018-09-02T04:32:45.625Z,8.00
2018-09-02T04:33:45.644Z,8.00
2018-09-02T04:34:45.504Z,8.00
2018-09-02T04:35:45.439Z,12.00
2018-09-02T04:36:45.379Z,12.00
2018-09-02T04:37:45.316Z,12.00
2018-09-02T04:38:45.255Z,16.00
2018-09-02T04:39:45.192Z,16.00
2018-09-02T04:40:45.129Z,16.00
2018-09-02T04:41:45.072Z,16.00
2018-09-02T04:42:45.007Z,16.00
2018-09-02T04:43:44.946Z,16.00
2018-09-02T04:44:44.881Z,16.00
2018-09-02T04:45:44.824Z,20.00
2018-09-02T04:46:44.759Z,20.00
2018-09-02T04:47:44.697Z,16.00
2018-09-02T04:48:44.635Z,20.00
2018-09-02T04:49:44.571Z,20.00
2018-09-02T04:50:44.510Z,24.00
2018-09-02T04:51:44.449Z,24.00
2018-09-02T04:52:44.387Z,24.00
2018-09-02T04:53:44.328Z,24.00
2018-09-02T04:54:44.332Z,28.00
2018-09-02T04:55:44.202Z,32.00
2018-09-02T04:56:44.138Z,36.00
2018-09-02T04:57:44.077Z,36.00
2018-09-02T04:58:44.016Z,44.00
2018-09-02T04:59:43.952Z,48.00
2018-09-02T05:00:43.892Z,60.00
2018-09-02T05:01:43.835Z,56.00
2018-09-02T05:02:43.768Z,56.00
2018-09-02T05:03:43.710Z,64.00
2018-09-02T05:04:43.643Z,64.00
2018-09-02T05:05:43.585Z,68.00
2018-09-02T05:06:43.519Z,72.00
2018-09-02T05:07:43.467Z,76.00
2018-09-02T05:08:43.395Z,88.00
2018-09-02T05:09:43.334Z,88.00
2018-09-02T05:10:43.272Z,84.00
2018-09-02T05:11:43.213Z,76.00
2018-09-02T05:12:43.151Z,80.00
2018-09-02T05:13:43.091Z,80.00
2018-09-02T05:14:43.024Z,92.00
2018-09-02T05:15:42.964Z,96.00
2018-09-02T05:16:42.902Z,96.00
2018-09-02T05:17:42.838Z,104.00
2018-09-02T05:18:42.778Z,124.00
2018-09-02T05:19:42.715Z,128.00
2018-09-02T05:20:42.654Z,116.00
2018-09-02T05:21:42.591Z,116.00
2018-09-02T05:22:42.529Z,124.00
2018-09-02T05:23:42.466Z,124.00
2018-09-02T05:24:42.406Z,108.00
2018-09-02T05:25:42.345Z,108.00
2018-09-02T05:26:42.281Z,104.00
2018-09-02T05:27:42.219Z,112.00
2018-09-02T05:28:42.158Z,116.00
2018-09-02T05:29:42.095Z,124.00
2018-09-02T05:30:42.033Z,128.00
2018-09-02T05:31:41.972Z,136.00
2018-09-02T05:32:41.909Z,144.00
2018-09-02T05:33:41.848Z,144.00
2018-09-02T05:34:41.785Z,136.00
2018-09-02T05:35:41.732Z,128.00
2018-09-02T05:36:41.662Z,136.00
2018-09-02T05:37:41.600Z,144.00
2018-09-02T05:38:41.540Z,156.00
2018-09-02T05:39:41.477Z,148.00
2018-09-02T05:40:41.416Z,152.00
2018-09-02T05:41:41.353Z,168.00
2018-09-02T05:42:41.294Z,188.00
2018-09-02T05:43:41.229Z,212.00
2018-09-02T05:44:41.169Z,236.00
2018-09-02T05:45:41.108Z,244.00
2018-09-02T05:46:41.041Z,252.00
2018-09-02T05:47:40.981Z,240.00
2018-09-02T05:48:40.922Z,236.00
2018-09-02T05:49:40.857Z,248.00
2018-09-02T05:50:40.798Z,280.00
2018-09-02T05:51:40.732Z,304.00
2018-09-02T05:52:40.672Z,332.00
2018-09-02T05:53:40.611Z,312.00
2018-09-02T05:54:40.547Z,288.00
2018-09-02T05:55:40.485Z,268.00
2018-09-02T05:56:40.421Z,240.00
2018-09-02T05:57:40.456Z,228.00
2018-09-02T05:58:40.301Z,204.00
2018-09-02T05:59:40.238Z,192.00
2018-09-02T06:00:40.175Z,184.00
2018-09-02T06:01:40.116Z,192.00
2018-09-02T06:02:40.114Z,216.00
2018-09-02T06:03:39.991Z,228.00
2018-09-02T06:04:39.932Z,260.00
2018-09-02T06:05:39.868Z,300.00
2018-09-02T06:06:39.804Z,328.00
2018-09-02T06:07:39.742Z,332.00
2018-09-02T06:08:39.683Z,320.00
2018-09-02T06:09:39.620Z,304.00
2018-09-02T06:10:39.559Z,280.00
2018-09-02T06:11:39.496Z,252.00
2018-09-02T06:12:39.441Z,248.00
2018-09-02T06:13:39.375Z,272.00
2018-09-02T06:14:39.310Z,284.00
2018-09-02T06:15:39.248Z,316.00
2018-09-02T06:16:39.185Z,348.00
2018-09-02T06:17:39.124Z,372.00
2018-09-02T06:18:39.061Z,368.00
2018-09-02T06:19:39.001Z,340.00
2018-09-02T06:20:38.940Z,336.00
2018-09-02T06:21:38.880Z,384.00
2018-09-02T06:22:38.816Z,516.00
2018-09-02T06:23:38.753Z,596.00
2018-09-02T06:24:38.692Z,616.00
2018-09-02T06:25:38.629Z,632.00
2018-09-02T06:26:38.567Z,612.00
2018-09-02T06:27:38.502Z,564.00
2018-09-02T06:28:38.446Z,484.00
2018-09-02T06:29:38.382Z,504.00
2018-09-02T06:30:38.318Z,528.00
2018-09-02T06:31:38.257Z,488.00
2018-09-02T06:32:38.198Z,468.00
2018-09-02T06:33:38.132Z,436.00
2018-09-02T06:34:38.072Z,432.00
2018-09-02T06:35:38.085Z,456.00
2018-09-02T06:36:37.948Z,476.00
2018-09-02T06:37:37.890Z,480.00
2018-09-02T06:38:37.827Z,492.00
2018-09-02T06:39:37.824Z,496.00
2018-09-02T06:40:37.703Z,504.00
2018-09-02T06:41:37.648Z,476.00
2018-09-02T06:42:37.583Z,496.00
2018-09-02T06:43:37.516Z,560.00
2018-09-02T06:44:37.455Z,576.00
2018-09-02T06:45:37.401Z,560.00
2018-09-02T06:46:37.330Z,524.00
2018-09-02T06:47:37.280Z,436.00
2018-09-02T06:48:37.207Z,388.00
2018-09-02T06:49:37.148Z,372.00
2018-09-02T06:50:37.084Z,352.00
2018-09-02T06:51:37.024Z,376.00
2018-09-02T06:52:37.071Z,400.00
2018-09-02T06:53:36.901Z,392.00
2018-09-02T06:54:36.839Z,380.00
2018-09-02T06:55:36.778Z,384.00
2018-09-02T06:56:36.721Z,364.00
2018-09-02T06:57:36.653Z,360.00
2018-09-02T06:58:36.677Z,360.00
2018-09-02T06:59:36.533Z,384.00
2018-09-02T07:00:36.467Z,404.00
2018-09-02T07:01:36.406Z,380.00
2018-09-02T07:02:36.380Z,372.00
2018-09-02T07:03:36.283Z,324.00
2018-09-02T07:04:36.222Z,304.00
2018-09-02T07:05:36.159Z,316.00
2018-09-02T07:06:36.187Z,340.00
2018-09-02T07:07:36.036Z,332.00
2018-09-02T07:08:35.981Z,300.00
2018-09-02T07:09:35.914Z,280.00
2018-09-02T07:10:35.851Z,292.00
2018-09-02T07:11:35.791Z,308.00
2018-09-02T07:12:35.726Z,356.00
2018-09-02T07:13:35.665Z,420.00
2018-09-02T07:14:35.606Z,428.00
2018-09-02T07:15:35.540Z,420.00
2018-09-02T07:16:35.479Z,416.00
2018-09-02T07:17:35.423Z,412.00
2018-09-02T07:18:35.354Z,396.00
2018-09-02T07:19:35.298Z,428.00
2018-09-02T07:20:35.234Z,460.00
2018-09-02T07:21:35.168Z,456.00
2018-09-02T07:22:35.111Z,444.00
2018-09-02T07:23:35.050Z,476.00
2018-09-02T07:24:34.993Z,504.00
2018-09-02T07:25:34.925Z,516.00
2018-09-02T07:26:34.877Z,496.00
2018-09-02T07:27:34.804Z,484.00
2018-09-02T07:28:34.745Z,540.00
2018-09-02T07:29:34.678Z,620.00
2018-09-02T07:30:34.617Z,752.00
2018-09-02T07:31:34.639Z,832.00
2018-09-02T07:32:34.499Z,872.00
2018-09-02T07:33:34.432Z,892.00
2018-09-02T07:34:34.370Z,1040.00
2018-09-02T07:35:34.309Z,1148.00
2018-09-02T07:36:34.244Z,1176.00
2018-09-02T07:37:34.186Z,1140.00
2018-09-02T07:38:34.152Z,1128.00
2018-09-02T07:39:34.059Z,1108.00
2018-09-02T07:40:33.998Z,1228.00
2018-09-02T07:41:33.943Z,1252.00
2018-09-02T07:42:33.873Z,1188.00
2018-09-02T07:43:33.834Z,1096.00
2018-09-02T07:44:33.753Z,1088.00
2018-09-02T07:45:33.692Z,1032.00
2018-09-02T07:46:33.629Z,1192.00
2018-09-02T07:47:33.570Z,1552.00
2018-09-02T07:48:33.508Z,1492.00
2018-09-02T07:49:33.446Z,1300.00
2018-09-02T07:50:33.385Z,1244.00
2018-09-02T07:51:33.336Z,1284.00
2018-09-02T07:52:33.261Z,1456.00
2018-09-02T07:53:33.198Z,2136.00
2018-09-02T07:54:33.199Z,3016.00
2018-09-02T07:55:33.076Z,3428.00
2018-09-02T07:56:33.013Z,3784.00
2018-09-02T07:57:32.949Z,3116.00
2018-09-02T07:58:32.887Z,2896.00
2018-09-02T07:59:32.833Z,3828.00
2018-09-02T08:00:32.767Z,4464.00
2018-09-02T08:01:32.708Z,4316.00
2018-09-02T08:02:32.702Z,3160.00
2018-09-02T08:03:32.584Z,2052.00
2018-09-02T08:04:32.523Z,1444.00
2018-09-02T08:05:32.463Z,1340.00
2018-09-02T08:06:32.398Z,1380.00
2018-09-02T08:07:32.339Z,1360.00
2018-09-02T08:08:32.276Z,1580.00
2018-09-02T08:09:32.212Z,1412.00
2018-09-02T08:10:32.156Z,1220.00
2018-09-02T08:11:32.097Z,1296.00
2018-09-02T08:12:32.042Z,1132.00
2018-09-02T08:13:31.973Z,1088.00
2018-09-02T08:14:31.911Z,1112.00
2018-09-02T08:15:31.846Z,1180.00
2018-09-02T08:16:31.787Z,1280.00
2018-09-02T08:17:31.727Z,1356.00
2018-09-02T08:18:31.663Z,1328.00
2018-09-02T08:19:31.603Z,1356.00
2018-09-02T08:20:31.544Z,1324.00
2018-09-02T08:21:31.482Z,1220.00
2018-09-02T08:22:31.419Z,1056.00
2018-09-02T08:23:31.365Z,880.00
2018-09-02T08:24:31.298Z,764.00
2018-09-02T08:25:31.237Z,712.00
2018-09-02T08:26:31.234Z,676.00
2018-09-02T08:27:31.112Z,688.00
2018-09-02T08:28:31.060Z,712.00
2018-09-02T08:29:30.992Z,760.00
2018-09-02T08:30:30.928Z,740.00
2018-09-02T08:31:30.920Z,712.00
2018-09-02T08:32:30.807Z,692.00
2018-09-02T08:33:30.746Z,692.00
2018-09-02T08:34:30.685Z,700.00
2018-09-02T08:35:30.628Z,600.00
2018-09-02T08:36:30.581Z,572.00
2018-09-02T08:37:30.501Z,552.00
2018-09-02T08:38:30.444Z,536.00
2018-09-02T08:39:30.379Z,552.00
2018-09-02T08:40:30.322Z,640.00
2018-09-02T08:41:30.262Z,644.00
2018-09-02T08:42:30.191Z,664.00
2018-09-02T08:43:30.134Z,640.00
2018-09-02T08:44:30.072Z,568.00
2018-09-02T08:45:30.009Z,524.00
2018-09-02T08:46:29.949Z,504.00
2018-09-02T08:47:29.889Z,516.00
2018-09-02T08:48:29.831Z,524.00
2018-09-02T08:49:29.823Z,516.00
2018-09-02T08:50:29.794Z,508.00
2018-09-02T08:51:29.645Z,512.00
2018-09-02T08:52:29.588Z,512.00
2018-09-02T08:53:29.526Z,516.00
2018-09-02T08:54:29.461Z,500.00
2018-09-02T08:55:29.400Z,492.00
2018-09-02T08:56:29.343Z,524.00
2018-09-02T08:57:29.278Z,584.00
2018-09-02T08:58:29.220Z,652.00
2018-09-02T08:59:29.154Z,752.00
2018-09-02T09:00:29.096Z,848.00
2018-09-02T09:01:29.041Z,948.00
2018-09-02T09:02:28.972Z,1056.00
2018-09-02T09:03:28.913Z,1300.00
2018-09-02T09:04:28.851Z,1632.00
2018-09-02T09:05:28.789Z,1808.00
2018-09-02T09:06:28.728Z,1876.00
2018-09-02T09:07:28.719Z,1900.00
2018-09-02T09:08:28.719Z,1868.00
2018-09-02T09:09:28.544Z,1868.00
2018-09-02T09:10:28.482Z,1848.00
2018-09-02T09:11:28.424Z,1780.00
2018-09-02T09:12:28.361Z,1712.00
2018-09-02T09:13:28.300Z,1660.00
2018-09-02T09:14:28.237Z,1688.00
2018-09-02T09:15:28.179Z,1852.00
2018-09-02T09:16:28.174Z,1944.00
2018-09-02T09:17:28.059Z,1856.00
2018-09-02T09:18:27.994Z,1740.00
2018-09-02T09:19:27.932Z,1644.00
2018-09-02T09:20:27.873Z,1748.00
2018-09-02T09:21:27.837Z,1948.00
2018-09-02T09:22:27.764Z,2224.00
2018-09-02T09:23:27.691Z,2396.00
2018-09-02T09:24:27.626Z,2208.00
2018-09-02T09:25:27.566Z,2000.00
2018-09-02T09:26:27.506Z,1860.00
2018-09-02T09:27:27.444Z,1620.00
2018-09-02T09:28:27.384Z,1600.00
2018-09-02T09:29:27.319Z,1492.00
2018-09-02T09:30:27.259Z,1408.00
2018-09-02T09:31:27.200Z,1268.00
2018-09-02T09:32:27.139Z,1052.00
2018-09-02T09:33:27.083Z,964.00
2018-09-02T09:34:27.016Z,988.00
2018-09-02T09:35:26.958Z,1064.00
2018-09-02T09:36:26.895Z,1040.00
2018-09-02T09:37:26.835Z,956.00
2018-09-02T09:38:26.771Z,908.00
2018-09-02T09:39:26.713Z,832.00
2018-09-02T09:40:26.653Z,824.00
2018-09-02T09:41:26.591Z,988.00
2018-09-02T09:42:26.532Z,1320.00
2018-09-02T09:43:26.470Z,1716.00
2018-09-02T09:44:26.408Z,2040.00
2018-09-02T09:45:26.353Z,2256.00
2018-09-02T09:46:26.287Z,2476.00
2018-09-02T09:47:26.227Z,2736.00
2018-09-02T09:48:26.167Z,2804.00
2018-09-02T09:49:26.103Z,2620.00
2018-09-02T09:50:26.045Z,2456.00
2018-09-02T09:51:25.982Z,2248.00
2018-09-02T09:52:25.921Z,2112.00
2018-09-02T09:53:25.860Z,2256.00
2018-09-02T09:54:25.799Z,2444.00
2018-09-02T09:55:25.794Z,2128.00
2018-09-02T09:56:25.679Z,1808.00
2018-09-02T09:57:25.617Z,1624.00
2018-09-02T09:58:25.553Z,1684.00
2018-09-02T09:59:25.495Z,2032.00
2018-09-02T10:00:25.433Z,2632.00
2018-09-02T10:01:25.370Z,3172.00
2018-09-02T10:02:25.315Z,3324.00
2018-09-02T10:03:25.250Z,2928.00
2018-09-02T10:04:25.190Z,2452.00
2018-09-02T10:05:25.131Z,2200.00
2018-09-02T10:06:25.067Z,1988.00
2018-09-02T10:07:25.008Z,1640.00
2018-09-02T10:08:24.948Z,1252.00
2018-09-02T10:09:24.886Z,968.00
2018-09-02T10:10:24.841Z,940.00
2018-09-02T10:11:24.763Z,940.00
2018-09-02T10:12:24.703Z,1044.00
2018-09-02T10:13:24.643Z,1312.00
2018-09-02T10:14:24.585Z,1852.00
2018-09-02T10:15:24.520Z,2272.00
2018-09-02T10:16:24.460Z,2388.00
2018-09-02T10:17:24.529Z,2376.00
2018-09-02T10:18:24.340Z,2264.00
2018-09-02T10:19:24.277Z,2136.00
2018-09-02T10:20:24.217Z,2032.00
2018-09-02T10:21:24.159Z,1980.00
2018-09-02T10:22:24.094Z,1992.00
2018-09-02T10:23:24.034Z,1988.00
2018-09-02T10:24:23.973Z,1976.00
2018-09-02T10:25:23.914Z,2068.00
2018-09-02T10:26:23.852Z,2284.00
2018-09-02T10:27:23.827Z,2532.00
2018-09-02T10:28:23.730Z,2764.00
2018-09-02T10:29:23.675Z,2780.00
2018-09-02T10:30:23.612Z,2684.00
2018-09-02T10:31:23.550Z,2612.00
2018-09-02T10:32:23.490Z,2404.00
2018-09-02T10:33:23.486Z,2132.00
2018-09-02T10:34:23.369Z,1856.00
2018-09-02T10:35:23.307Z,1732.00
2018-09-02T10:36:23.245Z,1716.00
2018-09-02T10:37:23.186Z,1684.00
2018-09-02T10:38:23.124Z,1568.00
2018-09-02T10:39:23.065Z,1572.00
2018-09-02T10:40:23.003Z,1656.00
2018-09-02T10:41:22.995Z,1712.00
2018-09-02T10:42:22.880Z,1728.00
2018-09-02T10:43:22.822Z,1804.00
2018-09-02T10:44:22.760Z,1672.00
2018-09-02T10:45:22.702Z,1584.00
2018-09-02T10:46:22.640Z,1564.00
2018-09-02T10:47:22.579Z,1488.00
2018-09-02T10:48:22.519Z,1432.00
2018-09-02T10:49:22.462Z,1404.00
2018-09-02T10:50:22.397Z,1412.00
2018-09-02T10:51:22.349Z,1420.00
2018-09-02T10:52:22.276Z,1400.00
2018-09-02T10:53:22.217Z,1316.00
2018-09-02T10:54:22.152Z,1216.00
2018-09-02T10:55:22.095Z,1164.00
2018-09-02T10:56:22.033Z,1140.00
2018-09-02T10:57:21.974Z,1164.00
2018-09-02T10:58:21.911Z,1208.00
2018-09-02T10:59:21.851Z,1196.00
2018-09-02T11:00:21.788Z,1120.00
2018-09-02T11:01:21.736Z,1036.00
2018-09-02T11:02:21.670Z,992.00
2018-09-02T11:03:21.608Z,976.00
2018-09-02T11:04:21.548Z,972.00
2018-09-02T11:05:21.488Z,1008.00
2018-09-02T11:06:21.427Z,1048.00
2018-09-02T11:07:21.365Z,1072.00
2018-09-02T11:08:21.308Z,1112.00
2018-09-02T11:09:21.246Z,1116.00
2018-09-02T11:10:21.184Z,1092.00
2018-09-02T11:11:21.128Z,1096.00
2018-09-02T11:12:21.067Z,1136.00
2018-09-02T11:13:21.066Z,1156.00
2018-09-02T11:14:20.942Z,1124.00
2018-09-02T11:15:20.884Z,1084.00
2018-09-02T11:16:20.822Z,1040.00
2018-09-02T11:17:20.762Z,1012.00
2018-09-02T11:18:20.700Z,1020.00
2018-09-02T11:19:20.639Z,1032.00
2018-09-02T11:20:20.578Z,1008.00
2018-09-02T11:21:20.516Z,964.00
2018-09-02T11:22:20.456Z,948.00
2018-09-02T11:23:20.396Z,944.00
2018-09-02T11:24:20.336Z,956.00
2018-09-02T11:25:20.277Z,948.00
2018-09-02T11:26:20.215Z,952.00
2018-09-02T11:27:20.154Z,976.00
2018-09-02T11:28:20.094Z,1000.00
2018-09-02T11:29:20.032Z,1016.00
2018-09-02T11:30:19.970Z,1016.00
2018-09-02T11:31:19.912Z,1020.00
2018-09-02T11:32:19.853Z,1048.00
2018-09-02T11:33:19.787Z,1076.00
2018-09-02T11:34:19.732Z,1068.00
2018-09-02T11:35:19.666Z,1072.00
2018-09-02T11:36:19.608Z,1072.00
2018-09-02T11:37:19.547Z,1096.00
2018-09-02T11:38:19.493Z,1068.00
2018-09-02T11:39:19.426Z,1008.00
2018-09-02T11:40:19.366Z,916.00
2018-09-02T11:41:19.307Z,852.00
2018-09-02T11:42:19.244Z,816.00
2018-09-02T11:43:19.182Z,780.00
2018-09-02T11:44:19.123Z,712.00
2018-09-02T11:45:19.064Z,656.00
2018-09-02T11:46:19.003Z,600.00
2018-09-02T11:47:18.940Z,584.00
2018-09-02T11:48:18.881Z,608.00
2018-09-02T11:49:18.826Z,636.00
2018-09-02T11:50:18.759Z,636.00
2018-09-02T11:51:18.696Z,632.00
2018-09-02T11:52:18.636Z,640.00
2018-09-02T11:53:18.578Z,692.00
2018-09-02T11:54:18.517Z,792.00
2018-09-02T11:55:18.455Z,896.00
2018-09-02T11:56:18.393Z,964.00
2018-09-02T11:57:18.336Z,1024.00
2018-09-02T11:58:18.272Z,1092.00
2018-09-02T11:59:18.211Z,1172.00
2018-09-02T12:00:18.152Z,1164.00
2018-09-02T12:01:18.092Z,1152.00
2018-09-02T12:02:18.030Z,1140.00
2018-09-02T12:03:17.990Z,1124.00
2018-09-02T12:04:17.908Z,1072.00
2018-09-02T12:05:17.851Z,1008.00
2018-09-02T12:06:17.788Z,992.00
2018-09-02T12:07:17.725Z,968.00
2018-09-02T12:08:17.665Z,932.00
2018-09-02T12:09:17.604Z,968.00
2018-09-02T12:10:17.545Z,992.00
2018-09-02T12:11:17.483Z,1000.00
2018-09-02T12:12:17.422Z,1004.00
2018-09-02T12:13:17.362Z,884.00
2018-09-02T12:14:17.301Z,804.00
2018-09-02T12:15:17.241Z,864.00
2018-09-02T12:16:17.179Z,932.00
2018-09-02T12:17:17.118Z,972.00
2018-09-02T12:18:17.056Z,968.00
2018-09-02T12:19:16.999Z,936.00
2018-09-02T12:20:16.950Z,928.00
2018-09-02T12:21:16.875Z,936.00
2018-09-02T12:22:16.814Z,976.00
2018-09-02T12:23:16.754Z,1016.00
2018-09-02T12:24:16.694Z,944.00
2018-09-02T12:25:16.634Z,828.00
2018-09-02T12:26:16.572Z,788.00
2018-09-02T12:27:16.552Z,872.00
2018-09-02T12:28:16.451Z,852.00
2018-09-02T12:29:16.390Z,840.00
2018-09-02T12:30:16.328Z,920.00
2018-09-02T12:31:16.267Z,992.00
2018-09-02T12:32:16.211Z,992.00
2018-09-02T12:33:16.146Z,968.00
2018-09-02T12:34:16.093Z,928.00
2018-09-02T12:35:16.025Z,852.00
2018-09-02T12:36:15.964Z,844.00
2018-09-02T12:37:15.904Z,868.00
2018-09-02T12:38:15.847Z,904.00
2018-09-02T12:39:15.780Z,816.00